Time;durP1;ratioP1;P1;durP2;ratioP2;P2;SDS_P1;SDS_P2;PMS_P1;PMS_P2;Temp;Humidity;BMP_temperature;BMP_pressure;BME280_temperature;BME280_humidity;BME280_pressure;Samples;Min_cycle;Max_cycle;Signal;HPM_P1;HPM_P2
2022/09/07 00:01:27;;;;;;;3.65;2.40;;;26.90;44.30;;;;;;5009357;28;20066;-66
2022/09/07 00:03:55;;;;;;;3.17;1.83;;;27.00;45.00;;;;;;5011468;28;20072;-67
2022/09/07 00:06:21;;;;;;;2.63;1.60;;;27.00;45.00;;;;;;5009486;28;20045;-67
2022/09/07 00:08:47;;;;;;;3.53;1.67;;;27.00;45.10;;;;;;5031732;28;20123;-65
2022/09/07 00:11:16;;;;;;;4.07;1.63;;;26.90;44.50;;;;;;5027475;28;20042;-67
2022/09/07 00:13:43;;;;;;;5.05;2.13;;;27.00;45.10;;;;;;5010089;28;20475;-64
2022/09/07 00:16:19;;;;;;;2.35;2.15;;;26.90;44.60;;;;;;5011620;28;20030;-67
2022/09/07 00:18:45;;;;;;;2.05;1.70;;;26.90;44.60;;;;;;5026423;28;20041;-66
2022/09/07 00:21:12;;;;;;;3.58;1.75;;;26.90;44.70;;;;;;5031396;28;20036;-67
2022/09/07 00:23:39;;;;;;;2.03;1.40;;;26.80;44.60;;;;;;5031413;28;20126;-67
2022/09/07 00:26:10;;;;;;;1.80;1.70;;;26.80;44.70;;;;;;5031240;28;20056;-67
2022/09/07 00:28:37;;;;;;;2.03;1.83;;;26.80;44.70;;;;;;5031260;28;20054;-69
2022/09/07 00:31:07;;;;;;;1.80;1.52;;;26.90;44.70;;;;;;5015306;28;20065;-67
2022/09/07 00:33:33;;;;;;;2.45;1.85;;;26.90;44.80;;;;;;5011633;28;20052;-67
2022/09/07 00:36:01;;;;;;;2.33;1.63;;;26.80;44.70;;;;;;5011565;28;20046;-66
2022/09/07 00:38:27;;;;;;;5.80;1.80;;;26.80;44.80;;;;;;5011516;28;20030;-66
2022/09/07 00:40:53;;;;;;;1.80;1.60;;;26.80;44.90;;;;;;5011244;28;20073;-66
2022/09/07 00:43:30;;;;;;;2.65;1.80;;;26.80;44.90;;;;;;5011188;28;20536;-67
2022/09/07 00:45:56;;;;;;;5.65;1.70;;;26.70;45.00;;;;;;5008715;28;20391;-67
2022/09/07 00:48:31;;;;;;;3.65;1.90;;;26.70;45.20;;;;;;5008916;28;20042;-66
2022/09/07 00:51:05;;;;;;;1.77;1.58;;;26.70;45.30;;;;;;5013636;28;20482;-64
2022/09/07 00:53:37;;;;;;;3.33;1.73;;;26.70;45.40;;;;;;5014934;28;20053;-67
2022/09/07 00:56:05;;;;;;;2.60;1.70;;;26.70;45.40;;;;;;5014845;28;20064;-67
2022/09/07 00:58:35;;;;;;;4.50;1.73;;;26.70;45.40;;;;;;5015099;28;20173;-67
2022/09/07 01:01:01;;;;;;;2.28;1.70;;;26.80;45.50;;;;;;5014819;28;20470;-67
2022/09/07 01:03:33;;;;;;;4.05;1.52;;;26.70;45.50;;;;;;5014972;28;20041;-66
2022/09/07 01:06:11;;;;;;;3.63;1.53;;;26.60;45.60;;;;;;5017449;28;20088;-67
2022/09/07 01:08:37;;;;;;;3.42;1.80;;;26.70;45.80;;;;;;5029398;28;20299;-67
2022/09/07 01:11:04;;;;;;;3.00;1.70;;;26.60;46.10;;;;;;5015367;28;20033;-65
2022/09/07 01:13:30;;;;;;;3.20;1.63;;;26.50;46.30;;;;;;5014669;28;20471;-67
2022/09/07 01:16:33;;;;;;;3.03;1.63;;;26.50;46.40;;;;;;5026161;28;20033;-67
2022/09/07 01:19:06;;;;;;;2.28;2.00;;;26.40;46.60;;;;;;5034333;28;20068;-67
2022/09/07 01:22:20;;;;;;;3.35;2.08;;;26.60;46.60;;;;;;5034156;28;20060;-67
2022/09/07 01:24:52;;;;;;;2.47;1.65;;;26.50;46.70;;;;;;4953091;29;20320;-65
2022/09/07 01:27:32;;;;;;;3.53;1.67;;;26.50;46.80;;;;;;4932705;29;20067;-64
2022/09/07 01:30:07;;;;;;;3.15;1.70;;;26.40;46.90;;;;;;4933923;29;20050;-67
2022/09/07 01:32:58;;;;;;;3.53;1.40;;;26.50;46.90;;;;;;4934117;29;20040;-66
2022/09/07 01:35:42;;;;;;;4.72;2.33;;;26.50;46.90;;;;;;4934224;29;20199;-67
2022/09/07 01:38:17;;;;;;;2.53;2.03;;;26.50;46.90;;;;;;4934256;29;20074;-66
2022/09/07 01:40:46;;;;;;;2.10;1.90;;;26.50;47.00;;;;;;4934234;29;20035;-67
2022/09/07 01:43:29;;;;;;;3.08;1.67;;;26.30;47.00;;;;;;4933201;29;20134;-67
2022/09/07 01:45:57;;;;;;;4.75;1.90;;;26.30;47.00;;;;;;4933453;29;20058;-67
2022/09/07 01:48:25;;;;;;;5.93;2.05;;;26.50;47.00;;;;;;4917442;29;20071;-66
2022/09/07 01:50:59;;;;;;;3.60;1.60;;;26.50;47.00;;;;;;4913863;29;20177;-67
2022/09/07 01:53:36;;;;;;;2.75;1.75;;;26.40;46.90;;;;;;4914399;29;20148;-66
2022/09/07 01:56:15;;;;;;;1.98;1.40;;;26.40;47.00;;;;;;4900874;29;20053;-67
2022/09/07 01:58:48;;;;;;;2.58;1.70;;;26.50;47.10;;;;;;4895172;29;20060;-65
2022/09/07 02:01:42;;;;;;;2.55;1.75;;;26.40;47.00;;;;;;4920453;28;20052;-66
2022/09/07 02:04:40;;;;;;;4.75;1.65;;;26.40;46.90;;;;;;5007957;28;20033;-66
2022/09/07 02:07:28;;;;;;;4.15;1.60;;;26.40;46.90;;;;;;5023878;28;20426;-67
2022/09/07 02:10:15;;;;;;;2.97;1.58;;;26.50;46.90;;;;;;5037464;28;20057;-67
2022/09/07 02:12:51;;;;;;;1.98;1.60;;;26.50;46.80;;;;;;5011741;28;20148;-67
2022/09/07 02:15:37;;;;;;;8.30;1.95;;;26.40;46.70;;;;;;5012993;28;20061;-67
2022/09/07 02:18:06;;;;;;;2.03;1.52;;;26.50;46.50;;;;;;5013111;28;20049;-66
2022/09/07 02:20:36;;;;;;;4.28;1.95;;;26.50;46.30;;;;;;5012923;28;20383;-65
2022/09/07 02:23:11;;;;;;;1.85;1.48;;;26.60;46.40;;;;;;5013032;28;20116;-66
2022/09/07 02:25:50;;;;;;;4.63;1.80;;;26.50;46.30;;;;;;5013069;28;20367;-66
2022/09/07 02:28:22;;;;;;;2.40;1.50;;;26.50;46.30;;;;;;5013639;28;20058;-67
2022/09/07 02:30:48;;;;;;;3.13;1.60;;;26.40;46.40;;;;;;5013194;28;20099;-67
2022/09/07 02:33:14;;;;;;;2.53;1.50;;;26.50;46.40;;;;;;5013275;28;20124;-66
2022/09/07 02:35:40;;;;;;;2.85;1.17;;;26.40;46.40;;;;;;5010543;28;20372;-66
2022/09/07 02:38:07;;;;;;;1.90;1.50;;;26.40;46.50;;;;;;5013025;28;20068;-66
2022/09/07 02:40:33;;;;;;;2.58;1.65;;;26.40;46.50;;;;;;5013284;28;20060;-67
2022/09/07 02:43:04;;;;;;;3.88;1.73;;;26.50;46.50;;;;;;5012896;28;20085;-66
2022/09/07 02:45:42;;;;;;;2.03;1.33;;;26.50;46.50;;;;;;5026928;28;20201;-66
2022/09/07 02:48:19;;;;;;;4.97;2.10;;;26.40;46.60;;;;;;5013044;28;20038;-67
2022/09/07 02:50:54;;;;;;;2.65;1.35;;;26.40;46.70;;;;;;5012550;28;20038;-66
2022/09/07 02:53:36;;;;;;;4.53;1.48;;;26.40;46.90;;;;;;5027013;28;20054;-64
2022/09/07 02:56:33;;;;;;;3.15;1.58;;;26.30;46.90;;;;;;5026821;28;20046;-65
2022/09/07 02:59:26;;;;;;;1.52;1.42;;;26.50;47.00;;;;;;5012547;28;20061;-67
2022/09/07 03:02:19;;;;;;;2.28;1.75;;;26.40;47.00;;;;;;4990568;28;20058;-67
2022/09/07 03:04:53;;;;;;;3.22;1.88;;;26.30;47.00;;;;;;4992970;28;20052;-67
2022/09/07 03:07:29;;;;;;;2.58;1.80;;;26.30;47.00;;;;;;4991325;28;20426;-66
2022/09/07 03:09:57;;;;;;;2.53;1.65;;;26.30;46.90;;;;;;4991496;28;20092;-65
2022/09/07 03:12:23;;;;;;;2.38;1.48;;;26.20;46.90;;;;;;5009549;28;20386;-67
2022/09/07 03:14:49;;;;;;;1.42;1.33;;;26.40;46.90;;;;;;5009516;28;20042;-67
2022/09/07 03:17:15;;;;;;;3.08;1.40;;;26.20;47.00;;;;;;5009749;28;20041;-65
2022/09/07 03:19:42;;;;;;;3.08;1.80;;;26.20;46.90;;;;;;4992907;28;20314;-66
2022/09/07 03:22:08;;;;;;;1.90;1.33;;;26.30;46.90;;;;;;5007965;28;20136;-66
2022/09/07 03:24:35;;;;;;;1.88;1.55;;;26.20;46.90;;;;;;4989620;28;20185;-66
2022/09/07 03:27:01;;;;;;;2.65;1.52;;;26.20;47.00;;;;;;4973806;28;20034;-67
2022/09/07 03:29:27;;;;;;;3.13;2.10;;;26.00;47.10;;;;;;4973447;28;20566;-67
2022/09/07 03:31:53;;;;;;;6.07;2.10;;;26.10;47.20;;;;;;4990075;28;20047;-66
2022/09/07 03:34:19;;;;;;;3.92;1.73;;;26.10;47.20;;;;;;4989981;28;20038;-67
2022/09/07 03:36:45;;;;;;;2.03;1.70;;;26.10;47.40;;;;;;4990200;28;20037;-66
2022/09/07 03:39:12;;;;;;;3.70;1.98;;;26.10;47.50;;;;;;5002890;28;20388;-66
2022/09/07 03:41:38;;;;;;;4.50;1.58;;;26.00;47.60;;;;;;5012237;28;20042;-66
2022/09/07 03:44:06;;;;;;;1.40;1.30;;;26.00;47.50;;;;;;5011969;28;20444;-66
2022/09/07 03:46:33;;;;;;;1.88;1.48;;;26.00;47.60;;;;;;5012132;28;20030;-66
2022/09/07 03:48:59;;;;;;;2.75;1.63;;;25.90;47.10;;;;;;5010637;28;20148;-66
2022/09/07 03:51:25;;;;;;;2.28;1.80;;;26.10;47.50;;;;;;5012209;28;20395;-66
2022/09/07 03:53:51;;;;;;;3.30;1.67;;;25.90;47.10;;;;;;5026217;28;20112;-67
2022/09/07 03:56:20;;;;;;;5.53;1.63;;;26.00;47.60;;;;;;5011979;28;20038;-67
2022/09/07 03:58:47;;;;;;;2.10;1.30;;;25.90;47.20;;;;;;5014101;28;20550;-66
2022/09/07 04:01:19;;;;;;;1.45;1.30;;;25.90;47.30;;;;;;5012486;28;20104;-67
2022/09/07 04:03:46;;;;;;;1.52;1.30;;;26.10;47.40;;;;;;5011688;28;20121;-67
2022/09/07 04:06:14;;;;;;;2.10;1.55;;;26.10;46.90;;;;;;5011825;28;20062;-67
2022/09/07 04:08:41;;;;;;;1.80;1.40;;;26.20;46.40;;;;;;5012024;28;20455;-67
2022/09/07 04:11:10;;;;;;;4.95;1.58;;;26.40;46.10;;;;;;5011908;28;20066;-67
2022/09/07 04:13:36;;;;;;;6.57;1.58;;;26.40;45.90;;;;;;5009359;28;20073;-65
2022/09/07 04:16:31;;;;;;;2.00;1.67;;;26.50;45.70;;;;;;5011578;28;20490;-70
2022/09/07 04:18:58;;;;;;;2.42;1.38;;;26.50;47.90;;;;;;4989382;28;20547;-70
2022/09/07 04:21:26;;;;;;;4.63;1.80;;;26.80;48.00;;;;;;4989587;28;20121;-69
2022/09/07 04:23:52;;;;;;;2.03;1.38;;;27.10;48.60;;;;;;4988793;28;20042;-69
2022/09/07 04:26:21;;;;;;;2.35;1.50;;;27.20;48.80;;;;;;4989452;28;20041;-67
2022/09/07 04:28:47;;;;;;;2.38;1.80;;;27.30;47.80;;;;;;4940732;28;20417;-68
2022/09/07 04:31:15;;;;;;;3.03;1.70;;;27.20;44.10;;;;;;4989143;28;20037;-67
2022/09/07 04:33:42;;;;;;;2.13;1.90;;;27.00;42.20;;;;;;4989228;28;20228;-67
2022/09/07 04:36:08;;;;;;;6.82;2.15;;;26.90;42.30;;;;;;4973134;28;20077;-68
2022/09/07 04:38:34;;;;;;;5.97;1.83;;;27.00;43.20;;;;;;4957139;28;20042;-68
2022/09/07 04:41:05;;;;;;;4.28;1.63;;;26.90;41.90;;;;;;4989085;28;20038;-68
2022/09/07 04:43:31;;;;;;;4.90;1.48;;;26.90;41.40;;;;;;4989125;28;20109;-68
2022/09/07 04:46:01;;;;;;;2.53;1.73;;;26.90;41.00;;;;;;4972587;28;20056;-68
2022/09/07 04:48:27;;;;;;;4.93;1.98;;;27.10;41.30;;;;;;4940473;28;20078;-68
2022/09/07 04:50:53;;;;;;;3.33;1.60;;;26.90;40.50;;;;;;4989341;28;20044;-68
2022/09/07 04:53:19;;;;;;;0.47;0.47;;;26.80;40.40;;;;;;4989051;28;20064;-68
2022/09/07 04:55:45;;;;;;;2.33;0.98;;;26.90;39.60;;;;;;5003665;28;20061;-67
2022/09/07 04:58:12;;;;;;;0.82;0.77;;;26.90;40.00;;;;;;5011401;28;20554;-67
2022/09/07 05:00:38;;;;;;;0.93;0.93;;;27.00;40.80;;;;;;5010410;28;20045;-66
2022/09/07 05:03:04;;;;;;;0.85;0.85;;;26.80;39.40;;;;;;5011775;28;20034;-68
2022/09/07 05:05:30;;;;;;;0.82;0.65;;;26.80;38.60;;;;;;5012073;28;20025;-69
2022/09/07 05:07:56;;;;;;;0.90;0.90;;;26.80;37.70;;;;;;5010564;28;20073;-68
2022/09/07 05:10:23;;;;;;;1.95;0.85;;;26.80;36.00;;;;;;5010127;28;20041;-69
2022/09/07 05:12:51;;;;;;;0.90;0.90;;;26.80;36.20;;;;;;5009181;28;20092;-68
2022/09/07 05:15:17;;;;;;;0.30;0.30;;;26.70;36.60;;;;;;5009898;28;20471;-67
2022/09/07 05:17:43;;;;;;;1.38;1.15;;;26.80;38.70;;;;;;5011434;28;20026;-67
2022/09/07 05:20:09;;;;;;;2.35;1.38;;;26.80;39.70;;;;;;5010041;28;20037;-67
2022/09/07 05:22:39;;;;;;;1.95;1.30;;;26.80;38.50;;;;;;5024104;28;20038;-69
2022/09/07 05:25:07;;;;;;;2.90;1.25;;;26.80;37.50;;;;;;5007256;28;20105;-73
2022/09/07 05:27:33;;;;;;;0.88;0.85;;;26.80;37.10;;;;;;5010156;28;20093;-74
2022/09/07 05:29:59;;;;;;;2.97;0.90;;;26.90;39.00;;;;;;5009971;28;20038;-66
2022/09/07 05:32:25;;;;;;;2.15;1.75;;;26.80;39.70;;;;;;5007479;28;20117;-70
2022/09/07 05:34:52;;;;;;;2.03;1.73;;;26.70;38.90;;;;;;5010338;28;20058;-68
2022/09/07 05:37:18;;;;;;;4.00;1.50;;;26.80;38.80;;;;;;4978366;28;20038;-70
2022/09/07 05:39:44;;;;;;;6.22;1.67;;;26.80;40.60;;;;;;5013412;28;20498;-69
2022/09/07 05:42:10;;;;;;;2.50;1.88;;;26.90;40.00;;;;;;5027281;28;20034;-68
2022/09/07 05:44:36;;;;;;;2.45;1.70;;;26.70;40.10;;;;;;5033436;28;20048;-67
2022/09/07 05:47:02;;;;;;;2.70;1.75;;;26.70;39.90;;;;;;5032954;28;20083;-69
2022/09/07 05:49:29;;;;;;;1.13;1.02;;;26.70;40.80;;;;;;5033325;28;20041;-69
2022/09/07 05:51:55;;;;;;;4.85;2.22;;;26.80;42.30;;;;;;5023034;28;20041;-67
2022/09/07 05:54:21;;;;;;;1.65;1.25;;;26.70;41.50;;;;;;5023410;28;20466;-67
2022/09/07 05:56:47;;;;;;;4.78;1.63;;;26.60;41.30;;;;;;5015521;28;20049;-68
2022/09/07 05:59:13;;;;;;;5.88;1.40;;;26.60;41.60;;;;;;5013049;28;20065;-69
2022/09/07 06:01:39;;;;;;;2.28;1.25;;;26.70;41.50;;;;;;5023952;28;20041;-69
2022/09/07 06:04:05;;;;;;;3.00;1.52;;;26.70;41.70;;;;;;5023937;28;20037;-69
2022/09/07 06:06:35;;;;;;;4.25;1.20;;;26.70;41.80;;;;;;5025303;28;20029;-68
2022/09/07 06:09:01;;;;;;;4.45;1.70;;;26.80;42.10;;;;;;5021076;28;20763;-71
2022/09/07 06:11:27;;;;;;;2.25;1.40;;;26.80;42.30;;;;;;5017834;28;20038;-66
2022/09/07 06:13:53;;;;;;;2.35;1.58;;;26.70;42.50;;;;;;5016807;28;20044;-70
2022/09/07 06:16:20;;;;;;;3.30;1.88;;;26.80;42.80;;;;;;5019789;28;20029;-71
2022/09/07 06:18:48;;;;;;;2.67;1.80;;;26.80;42.90;;;;;;5019117;28;20041;-69
2022/09/07 06:21:19;;;;;;;5.60;2.03;;;26.70;42.90;;;;;;5017330;28;20033;-66
2022/09/07 06:23:46;;;;;;;2.45;1.27;;;26.80;43.30;;;;;;5016398;28;20033;-68
2022/09/07 06:26:13;;;;;;;7.78;1.88;;;26.80;43.50;;;;;;5019963;28;21094;-70
2022/09/07 06:28:44;;;;;;;1.70;1.30;;;26.90;43.70;;;;;;5016815;28;20037;-69
2022/09/07 06:31:13;;;;;;;4.93;1.52;;;26.80;43.90;;;;;;5018457;28;20029;-67
2022/09/07 06:33:40;;;;;;;4.35;1.40;;;26.90;44.00;;;;;;5016530;28;20406;-69
2022/09/07 06:36:29;;;;;;;2.47;1.65;;;26.80;44.00;;;;;;5010275;28;20095;-68
2022/09/07 06:38:57;;;;;;;1.60;1.38;;;26.90;44.20;;;;;;5013505;28;20040;-68
2022/09/07 06:41:27;;;;;;;4.40;1.35;;;26.80;43.80;;;;;;5032001;28;20040;-66
2022/09/07 06:44:13;;;;;;;2.45;1.80;;;26.80;42.90;;;;;;5029401;28;20072;-70
2022/09/07 06:46:39;;;;;;;5.07;1.80;;;26.90;43.00;;;;;;5028942;28;20115;-69
2022/09/07 06:49:05;;;;;;;3.15;1.73;;;27.00;42.40;;;;;;5029662;28;20084;-70
2022/09/07 06:51:31;;;;;;;1.73;1.38;;;27.00;41.70;;;;;;4981230;28;20368;-69
2022/09/07 06:54:00;;;;;;;1.63;1.45;;;26.80;40.30;;;;;;5020691;28;20037;-69
2022/09/07 06:56:27;;;;;;;3.45;1.77;;;26.80;40.30;;;;;;4992286;28;20062;-69
2022/09/07 06:59:13;;;;;;;2.58;1.73;;;26.90;39.40;;;;;;5009618;28;20050;-69
2022/09/07 07:01:39;;;;;;;2.22;1.50;;;26.90;38.90;;;;;;4989721;28;20158;-69
2022/09/07 07:04:05;;;;;;;5.05;1.60;;;27.00;38.80;;;;;;4990000;28;20054;-69
2022/09/07 07:06:35;;;;;;;4.05;2.20;;;26.90;37.60;;;;;;4989962;28;20128;-69
2022/09/07 07:09:06;;;;;;;2.92;1.92;;;26.90;37.70;;;;;;4990117;28;20464;-68
2022/09/07 07:11:32;;;;;;;4.88;1.98;;;26.90;37.30;;;;;;4990159;28;20048;-68
2022/09/07 07:14:00;;;;;;;7.38;1.98;;;26.80;37.90;;;;;;4990617;28;20066;-68
2022/09/07 07:16:26;;;;;;;3.65;1.63;;;26.80;37.80;;;;;;4990589;28;20050;-68
2022/09/07 07:18:55;;;;;;;4.03;2.22;;;26.90;37.60;;;;;;4990235;28;20041;-68
2022/09/07 07:21:22;;;;;;;5.82;2.33;;;26.90;37.40;;;;;;4990643;28;20050;-68
2022/09/07 07:23:52;;;;;;;2.40;1.67;;;26.80;37.40;;;;;;4990424;28;20605;-70
2022/09/07 07:26:22;;;;;;;2.65;1.83;;;26.80;37.10;;;;;;4974029;28;20089;-73
2022/09/07 07:28:50;;;;;;;1.92;1.58;;;26.80;35.70;;;;;;4990404;28;20403;-71
2022/09/07 07:31:22;;;;;;;3.25;1.92;;;26.80;36.00;;;;;;4964850;28;20087;-68
2022/09/07 07:33:49;;;;;;;2.97;2.13;;;26.70;37.00;;;;;;5021085;28;20046;-68
2022/09/07 07:36:23;;;;;;;7.35;2.03;;;26.70;36.40;;;;;;5009485;28;20528;-71
2022/09/07 07:38:52;;;;;;;3.60;2.05;;;26.80;36.90;;;;;;5011272;28;20038;-68
2022/09/07 07:41:21;;;;;;;4.10;2.40;;;26.70;37.10;;;;;;5011963;28;20121;-69
2022/09/07 07:43:51;;;;;;;1.88;1.65;;;26.70;37.20;;;;;;5012113;28;20057;-69
2022/09/07 07:46:17;;;;;;;4.65;2.00;;;26.70;36.80;;;;;;5012131;28;20034;-69
2022/09/07 07:48:46;;;;;;;5.05;1.38;;;26.70;36.30;;;;;;5012224;28;20034;-69
2022/09/07 07:51:12;;;;;;;3.50;1.50;;;26.60;36.60;;;;;;5012441;28;20042;-68
2022/09/07 07:53:40;;;;;;;2.70;1.90;;;26.70;36.20;;;;;;5013538;28;20453;-67
2022/09/07 07:56:08;;;;;;;6.72;1.75;;;26.60;36.00;;;;;;5014447;28;20402;-67
2022/09/07 07:58:54;;;;;;;3.15;2.03;;;26.70;36.30;;;;;;5010262;28;20486;-67
2022/09/07 08:01:21;;;;;;;1.95;1.50;;;26.60;36.30;;;;;;5008721;28;20149;-67
2022/09/07 08:03:50;;;;;;;5.35;2.15;;;26.70;36.90;;;;;;5008665;28;20045;-68
2022/09/07 08:06:18;;;;;;;3.60;1.73;;;26.70;37.10;;;;;;4988615;28;20137;-68
2022/09/07 08:08:45;;;;;;;3.17;1.77;;;26.80;35.60;;;;;;4989046;28;20030;-68
2022/09/07 08:11:15;;;;;;;1.98;1.77;;;26.70;36.00;;;;;;4989277;28;20065;-68
2022/09/07 08:13:43;;;;;;;4.10;2.05;;;26.70;36.60;;;;;;4989029;28;20042;-69
2022/09/07 08:16:09;;;;;;;6.15;0.85;;;26.80;38.00;;;;;;4988985;28;20546;-64
2022/09/07 08:18:37;;;;;;;1.48;1.30;;;27.20;37.30;;;;;;4988636;28;20038;-68
2022/09/07 08:21:24;;;;;;;3.05;1.10;;;27.50;35.60;;;;;;4988660;28;20053;-68
2022/09/07 08:23:50;;;;;;;1.73;0.90;;;27.70;34.90;;;;;;4969261;28;20114;-69
2022/09/07 08:26:16;;;;;;;5.63;0.85;;;27.80;36.20;;;;;;4969399;28;20576;-70
2022/09/07 08:28:44;;;;;;;1.65;0.80;;;27.80;37.20;;;;;;4970044;28;20134;-70
2022/09/07 08:31:13;;;;;;;1.52;1.10;;;28.00;35.90;;;;;;4957672;28;20061;-67
2022/09/07 08:33:40;;;;;;;0.88;0.88;;;27.70;35.70;;;;;;4992753;28;20056;-72
2022/09/07 08:36:19;;;;;;;10.15;1.88;;;27.70;37.50;;;;;;4976568;28;20040;-68
2022/09/07 08:38:46;;;;;;;6.32;1.70;;;27.80;35.20;;;;;;4992221;28;20078;-68
2022/09/07 08:41:46;;;;;;;7.35;1.48;;;27.70;35.20;;;;;;5005935;28;20040;-68
2022/09/07 08:44:30;;;;;;;1.92;1.73;;;27.70;36.10;;;;;;5008086;28;20392;-69
2022/09/07 08:47:06;;;;;;;1.83;1.40;;;27.60;35.90;;;;;;4992197;28;20076;-67
2022/09/07 08:49:41;;;;;;;4.35;3.13;;;27.60;35.30;;;;;;5007562;28;20046;-68
2022/09/07 08:52:22;;;;;;;3.15;1.50;;;27.50;35.90;;;;;;5007583;28;20042;-70
2022/09/07 08:55:14;;;;;;;3.83;1.67;;;27.50;35.40;;;;;;5009981;28;20471;-69
2022/09/07 08:58:16;;;;;;;4.75;1.70;;;27.60;35.10;;;;;;4949840;29;20055;-68
2022/09/07 09:01:01;;;;;;;6.22;1.92;;;27.40;35.50;;;;;;4912270;29;20502;-68
2022/09/07 09:03:30;;;;;;;3.90;2.10;;;27.50;36.10;;;;;;4912429;29;20056;-68
2022/09/07 09:06:24;;;;;;;6.10;1.70;;;27.30;36.90;;;;;;4896683;29;20470;-68
2022/09/07 09:09:16;;;;;;;3.75;1.70;;;27.50;37.40;;;;;;4912270;29;20048;-68
2022/09/07 09:12:10;;;;;;;5.40;2.20;;;27.40;36.10;;;;;;4915627;29;20044;-70
2022/09/07 09:14:47;;;;;;;4.70;2.20;;;27.40;36.20;;;;;;4878219;29;20085;-67
2022/09/07 09:17:19;;;;;;;2.55;1.58;;;27.30;36.80;;;;;;4862929;29;20064;-71
2022/09/07 09:20:05;;;;;;;6.57;2.33;;;27.30;37.20;;;;;;4878343;29;20140;-69
2022/09/07 09:22:31;;;;;;;2.85;1.48;;;27.20;34.70;;;;;;4878340;29;20063;-68
2022/09/07 09:25:20;;;;;;;5.38;2.15;;;27.20;37.40;;;;;;4878357;29;20052;-68
2022/09/07 09:27:48;;;;;;;7.25;2.58;;;27.20;37.30;;;;;;4878085;29;20072;-68
2022/09/07 09:30:16;;;;;;;6.75;2.00;;;27.20;36.20;;;;;;4915665;29;20059;-66
2022/09/07 09:32:45;;;;;;;4.05;1.80;;;27.20;37.10;;;;;;4930365;29;20047;-68
2022/09/07 09:35:23;;;;;;;4.78;2.03;;;27.20;37.30;;;;;;4960815;28;20599;-69
2022/09/07 09:37:49;;;;;;;2.60;1.80;;;27.30;36.70;;;;;;4956237;28;20654;-70
2022/09/07 09:40:24;;;;;;;1.67;1.58;;;27.10;39.40;;;;;;4972707;28;20563;-68
2022/09/07 09:43:20;;;;;;;2.35;1.50;;;27.60;41.80;;;;;;4956258;28;20053;-71
2022/09/07 09:46:08;;;;;;;5.13;2.13;;;27.90;45.00;;;;;;4978005;28;20100;-68
2022/09/07 09:48:39;;;;;;;6.20;3.22;;;27.80;40.50;;;;;;5010144;28;20816;-70
2022/09/07 09:51:07;;;;;;;2.65;2.30;;;27.60;38.50;;;;;;4995490;28;20086;-69
2022/09/07 09:54:07;;;;;;;2.97;1.73;;;27.60;40.10;;;;;;5011617;28;20072;-68
2022/09/07 09:56:44;;;;;;;4.47;1.92;;;27.50;40.30;;;;;;4953037;28;20046;-68
2022/09/07 09:59:12;;;;;;;4.25;2.10;;;27.40;39.30;;;;;;4952947;28;20059;-68
2022/09/07 10:01:38;;;;;;;2.38;1.88;;;27.30;37.00;;;;;;4952537;28;20043;-68
2022/09/07 10:04:32;;;;;;;4.43;2.13;;;27.30;39.30;;;;;;4953220;29;20143;-67
2022/09/07 10:07:28;;;;;;;9.00;2.65;;;27.90;47.00;;;;;;4858702;29;20052;-68
2022/09/07 10:10:15;;;;;;;6.43;2.72;;;28.90;49.50;;;;;;4827301;29;20069;-71
2022/09/07 10:13:01;;;;;;;2.70;1.65;;;29.80;49.50;;;;;;4840465;29;20171;-69
2022/09/07 10:15:36;;;;;;;3.40;2.67;;;30.30;51.20;;;;;;4803719;29;20103;-70
2022/09/07 10:18:26;;;;;;;4.00;2.13;;;30.20;41.60;;;;;;4803778;29;20042;-69
2022/09/07 10:21:10;;;;;;;3.20;2.05;;;29.60;36.30;;;;;;4785550;30;20134;-70
2022/09/07 10:23:36;;;;;;;2.85;1.98;;;29.40;34.10;;;;;;4782728;30;20525;-69
2022/09/07 10:26:27;;;;;;;6.20;1.92;;;29.00;37.40;;;;;;4785841;30;20051;-69
2022/09/07 10:29:10;;;;;;;6.53;2.92;;;28.70;38.90;;;;;;4765354;30;20522;-69
2022/09/07 10:32:01;;;;;;;6.38;2.22;;;28.70;38.30;;;;;;4749982;30;20060;-70
2022/09/07 10:34:45;;;;;;;4.15;1.98;;;28.60;37.40;;;;;;4729387;30;20045;-71
2022/09/07 10:37:43;;;;;;;3.50;2.00;;;28.50;35.60;;;;;;4731668;30;20060;-71
2022/09/07 10:40:16;;;;;;;7.20;1.85;;;28.40;36.90;;;;;;4717401;30;20102;-70
2022/09/07 10:42:53;;;;;;;6.63;2.70;;;28.40;40.00;;;;;;4736209;29;20098;-70
2022/09/07 10:45:45;;;;;;;5.68;2.60;;;28.30;38.50;;;;;;4834656;29;20058;-71
2022/09/07 10:48:31;;;;;;;2.88;2.20;;;28.20;37.40;;;;;;4795975;29;20050;-71
2022/09/07 10:51:02;;;;;;;2.65;1.42;;;28.10;39.10;;;;;;4803010;29;20152;-71
2022/09/07 10:53:52;;;;;;;3.88;1.98;;;28.10;38.90;;;;;;4829640;29;20205;-71
2022/09/07 10:56:31;;;;;;;4.43;2.15;;;28.00;37.30;;;;;;4839737;29;20502;-72
2022/09/07 10:59:12;;;;;;;2.00;1.60;;;27.90;38.30;;;;;;4840186;29;20062;-71
2022/09/07 11:01:43;;;;;;;3.33;2.28;;;27.90;36.70;;;;;;4844065;29;20037;-71
2022/09/07 11:04:27;;;;;;;3.83;2.33;;;27.80;39.30;;;;;;4857950;29;20266;-72
2022/09/07 11:07:16;;;;;;;2.88;2.05;;;27.80;39.40;;;;;;4885448;29;20072;-71
2022/09/07 11:09:48;;;;;;;5.03;2.15;;;27.80;37.70;;;;;;4879669;29;20108;-71
2022/09/07 11:12:20;;;;;;;11.05;2.13;;;27.90;38.60;;;;;;4925803;29;20074;-71
2022/09/07 11:14:52;;;;;;;2.60;1.90;;;27.80;37.70;;;;;;4932985;29;20047;-71
2022/09/07 11:17:22;;;;;;;5.45;1.98;;;27.70;37.90;;;;;;4933592;28;20353;-70
2022/09/07 11:20:29;;;;;;;6.40;2.20;;;27.60;38.50;;;;;;4950622;28;20038;-70
2022/09/07 11:23:08;;;;;;;3.42;2.08;;;27.60;38.90;;;;;;4932322;29;20047;-70
2022/09/07 11:25:41;;;;;;;1.33;1.23;;;27.60;39.30;;;;;;4963525;28;20034;-70
2022/09/07 11:28:13;;;;;;;;;;;27.70;39.70;;;;;;4991707;28;20042;-71
2022/09/07 11:30:46;;;;;;;11.00;2.20;;;27.50;37.90;;;;;;5009074;28;20029;-68
2022/09/07 11:33:25;;;;;;;9.43;2.83;;;27.50;38.70;;;;;;5009572;28;20049;-69
2022/09/07 11:36:01;;;;;;;7.22;2.03;;;27.50;38.50;;;;;;5012283;28;20025;-70
2022/09/07 11:38:32;;;;;;;14.45;1.80;;;27.50;39.30;;;;;;5010954;28;20042;-70
2022/09/07 11:41:17;;;;;;;4.63;2.20;;;27.40;41.50;;;;;;5011982;28;20053;-69
2022/09/07 11:44:20;;;;;;;3.13;1.85;;;27.50;43.20;;;;;;5014256;28;20112;-68
2022/09/07 11:46:48;;;;;;;;;;;27.40;41.60;;;;;;4989825;28;20042;-68
2022/09/07 11:49:22;;;;;;;12.68;1.38;;;27.50;41.50;;;;;;4997334;28;19929;-68
2022/09/07 11:51:55;;;;;;;2.63;1.75;;;27.40;41.20;;;;;;5008967;28;20117;-68
2022/09/07 11:54:38;;;;;;;4.78;1.58;;;27.30;40.90;;;;;;5008841;28;20034;-67
2022/09/07 11:57:42;;;;;;;6.68;2.17;;;27.40;40.80;;;;;;5008781;28;20061;-66
2022/09/07 12:00:20;;;;;;;3.97;2.65;;;27.30;40.60;;;;;;5006402;28;20145;-68
2022/09/07 12:03:06;;;;;;;3.08;2.05;;;27.50;40.50;;;;;;4989358;28;20514;-69
2022/09/07 12:05:40;;;;;;;5.10;2.30;;;27.30;40.50;;;;;;4989084;28;20502;-67
2022/09/07 12:08:27;;;;;;;2.80;1.80;;;27.30;38.90;;;;;;4956340;28;20043;-68
2022/09/07 12:11:23;;;;;;;3.15;1.55;;;27.20;40.20;;;;;;4987934;28;20030;-69
2022/09/07 12:13:54;;;;;;;5.18;2.10;;;27.20;40.20;;;;;;4950049;28;20054;-68
2022/09/07 12:16:38;;;;;;;3.50;2.03;;;27.20;40.20;;;;;;4948639;28;20126;-70
2022/09/07 12:19:24;;;;;;;3.22;2.03;;;27.20;40.60;;;;;;4930302;29;20473;-68
2022/09/07 12:21:50;;;;;;;3.28;2.63;;;27.30;40.40;;;;;;4930734;29;20059;-68
2022/09/07 12:24:48;;;;;;;1.52;1.40;;;27.20;40.30;;;;;;4930907;29;20565;-66
2022/09/07 12:27:20;;;;;;;2.55;2.00;;;27.50;40.50;;;;;;4931305;29;20044;-68
2022/09/07 12:30:12;;;;;;;2.90;1.92;;;27.30;40.40;;;;;;4931115;29;20051;-68
2022/09/07 12:32:47;;;;;;;2.00;1.70;;;27.20;40.20;;;;;;4931781;29;20114;-68
2022/09/07 12:35:37;;;;;;;2.70;1.63;;;27.40;39.30;;;;;;4915286;29;20110;-69
2022/09/07 12:38:12;;;;;;;2.67;2.28;;;27.20;40.40;;;;;;4939898;29;20603;-67
2022/09/07 12:40:43;;;;;;;3.10;2.67;;;27.20;38.10;;;;;;4942795;29;20580;-68
2022/09/07 12:43:11;;;;;;;3.38;1.80;;;27.20;38.80;;;;;;4931489;29;20135;-68
2022/09/07 12:45:37;;;;;;;2.67;2.42;;;27.20;40.30;;;;;;4932867;29;20078;-68
2022/09/07 12:48:15;;;;;;;4.03;2.42;;;27.20;40.70;;;;;;4935386;29;20079;-68
2022/09/07 12:51:18;;;;;;;3.40;1.73;;;27.20;40.60;;;;;;4963240;28;20483;-68
2022/09/07 12:53:59;;;;;;;3.38;1.95;;;27.10;41.70;;;;;;4992352;28;20046;-67
2022/09/07 12:56:37;;;;;;;4.88;2.08;;;27.20;41.40;;;;;;4992294;28;20049;-68
2022/09/07 12:59:06;;;;;;;5.45;2.53;;;27.20;41.50;;;;;;4991981;28;20062;-68
2022/09/07 13:01:48;;;;;;;2.75;2.10;;;27.10;41.30;;;;;;4992612;28;20050;-68
2022/09/07 13:04:32;;;;;;;4.90;2.00;;;27.10;39.60;;;;;;4975851;28;20042;-68
2022/09/07 13:07:46;;;;;;;3.88;2.30;;;27.10;41.20;;;;;;4992430;28;20093;-68
2022/09/07 13:10:33;;;;;;;4.88;1.80;;;27.00;41.40;;;;;;4992249;28;20046;-68
2022/09/07 13:13:15;;;;;;;5.70;2.00;;;27.10;41.20;;;;;;4992915;28;20030;-68
2022/09/07 13:15:45;;;;;;;3.57;2.20;;;27.00;40.80;;;;;;5009475;28;20509;-68
2022/09/07 13:18:34;;;;;;;3.65;1.80;;;27.00;39.80;;;;;;5014677;28;20045;-67
2022/09/07 13:21:06;;;;;;;2.58;2.10;;;27.10;41.60;;;;;;5028787;28;20387;-68
2022/09/07 13:23:45;;;;;;;4.47;2.38;;;27.10;41.80;;;;;;5015044;28;20034;-67